Time;durP1;ratioP1;P1;durP2;ratioP2;P2;SDS_P1;SDS_P2;PMS_P1;PMS_P2;Temp;Humidity;BMP_temperature;BMP_pressure;BME280_temperature;BME280_humidity;BME280_pressure;Samples;Min_cycle;Max_cycle;Signal;HPM_P1;HPM_P2
2022/04/18 00:01:28;;;;;;;20.98;14.48;;;6.90;96.80;;;;;;4978576;28;20051;-72
2022/04/18 00:03:55;;;;;;;20.65;13.73;;;6.80;96.90;;;;;;4965943;28;20053;-71
2022/04/18 00:06:21;;;;;;;20.83;13.00;;;6.80;96.80;;;;;;5002903;28;20042;-72
2022/04/18 00:08:46;;;;;;;19.67;13.45;;;6.80;97.60;;;;;;5000700;28;20489;-72
2022/04/18 00:11:12;;;;;;;19.02;12.90;;;6.70;98.10;;;;;;5001718;28;20042;-72
2022/04/18 00:13:38;;;;;;;18.65;12.77;;;6.60;97.90;;;;;;5001904;28;20130;-73
2022/04/18 00:16:04;;;;;;;17.98;13.10;;;6.60;98.00;;;;;;4984877;28;20133;-75
2022/04/18 00:18:29;;;;;;;18.98;12.60;;;6.60;98.40;;;;;;5002166;28;20042;-73
2022/04/18 00:20:55;;;;;;;20.30;12.02;;;6.50;98.40;;;;;;5001670;28;20042;-73
2022/04/18 00:23:20;;;;;;;19.38;13.02;;;6.50;98.80;;;;;;5001946;28;20123;-73
2022/04/18 00:25:46;;;;;;;19.50;12.82;;;6.50;99.30;;;;;;5002260;28;20129;-71
2022/04/18 00:28:12;;;;;;;20.92;13.75;;;6.50;99.90;;;;;;5002182;28;20066;-72
2022/04/18 00:30:38;;;;;;;19.50;13.38;;;6.40;99.20;;;;;;5001693;28;20430;-73
2022/04/18 00:33:04;;;;;;;20.35;13.68;;;6.40;99.80;;;;;;5001600;28;20086;-74
2022/04/18 00:35:29;;;;;;;19.40;12.93;;;6.40;99.70;;;;;;5001922;28;20046;-72
2022/04/18 00:37:55;;;;;;;20.55;13.93;;;6.30;99.80;;;;;;5001670;28;20471;-72
2022/04/18 00:40:21;;;;;;;21.05;13.88;;;6.30;99.90;;;;;;5001587;28;20370;-72
2022/04/18 00:42:46;;;;;;;21.77;12.95;;;6.20;99.90;;;;;;5001904;28;20113;-73
2022/04/18 00:45:12;;;;;;;22.67;13.40;;;6.20;99.90;;;;;;4968234;28;20390;-73
2022/04/18 00:47:37;;;;;;;21.40;13.60;;;6.10;99.90;;;;;;5001681;28;20370;-72
2022/04/18 00:50:03;;;;;;;21.13;13.68;;;6.20;99.90;;;;;;4984239;28;20046;-71
2022/04/18 00:52:30;;;;;;;22.73;13.13;;;6.10;99.90;;;;;;5001463;28;20035;-72
2022/04/18 00:54:58;;;;;;;19.85;13.30;;;6.10;99.90;;;;;;5001555;28;20050;-72
2022/04/18 00:57:25;;;;;;;21.15;13.05;;;6.00;99.90;;;;;;5001808;28;20354;-74
2022/04/18 00:59:50;;;;;;;19.73;12.98;;;6.00;99.90;;;;;;5001711;28;20042;-75
2022/04/18 01:02:17;;;;;;;17.92;12.75;;;6.00;99.90;;;;;;5001259;28;20054;-73
2022/04/18 01:04:43;;;;;;;22.02;14.43;;;5.90;99.90;;;;;;5001470;28;20425;-71
2022/04/18 01:07:09;;;;;;;20.58;14.20;;;5.90;99.90;;;;;;5001408;28;20077;-72
2022/04/18 01:09:35;;;;;;;23.17;14.07;;;5.90;99.90;;;;;;5001305;28;20430;-71
2022/04/18 01:12:01;;;;;;;18.73;13.35;;;5.90;99.90;;;;;;5001240;28;20120;-72
2022/04/18 01:14:26;;;;;;;23.63;13.25;;;5.80;99.90;;;;;;4999800;28;20451;-73
2022/04/18 01:16:52;;;;;;;17.67;13.10;;;5.80;99.90;;;;;;4998467;28;20061;-72
2022/04/18 01:19:18;;;;;;;22.92;14.73;;;5.70;99.90;;;;;;4995446;28;20046;-73
2022/04/18 01:21:43;;;;;;;20.60;13.85;;;5.70;99.90;;;;;;4980684;28;20057;-71
2022/04/18 01:29:37;;;;;;;21.88;14.43;;;5.60;99.90;;;;;;4998029;28;20058;-72
2022/04/18 01:32:03;;;;;;;22.40;13.30;;;5.60;99.90;;;;;;4986094;28;20056;-73
2022/04/18 01:34:29;;;;;;;21.98;14.40;;;5.60;99.90;;;;;;4961226;28;20141;-72
2022/04/18 01:36:54;;;;;;;21.17;14.25;;;5.70;99.90;;;;;;4978356;28;20047;-72
2022/04/18 01:39:20;;;;;;;25.45;14.32;;;5.50;99.90;;;;;;4978463;28;20057;-72
2022/04/18 01:41:46;;;;;;;21.20;14.82;;;5.50;99.90;;;;;;4978535;28;20047;-73
2022/04/18 01:44:12;;;;;;;23.52;14.73;;;5.50;99.90;;;;;;4978425;28;20112;-72
2022/04/18 01:46:37;;;;;;;22.30;15.05;;;5.50;99.90;;;;;;4961153;28;20047;-73
2022/04/18 01:49:03;;;;;;;22.60;14.18;;;5.50;99.90;;;;;;4961592;28;20053;-73
2022/04/18 01:51:29;;;;;;;24.00;14.45;;;5.50;99.90;;;;;;4978371;28;20047;-72
2022/04/18 01:53:54;;;;;;;24.48;15.00;;;5.50;99.90;;;;;;4978304;28;20039;-72
2022/04/18 01:56:20;;;;;;;24.58;14.93;;;5.40;99.90;;;;;;4978336;28;20051;-72
2022/04/18 01:58:45;;;;;;;23.83;14.98;;;5.40;99.90;;;;;;4978058;28;20081;-73
2022/04/18 02:01:11;;;;;;;23.42;14.77;;;5.40;99.90;;;;;;4979855;28;20455;-73
2022/04/18 02:03:43;;;;;;;20.60;14.07;;;5.40;99.90;;;;;;4985095;28;20045;-72
2022/04/18 02:06:09;;;;;;;23.80;14.32;;;5.40;99.90;;;;;;4997912;28;20382;-74
2022/04/18 02:08:35;;;;;;;23.75;14.70;;;5.40;99.90;;;;;;4980287;28;20065;-71
2022/04/18 02:11:01;;;;;;;24.50;15.35;;;5.30;99.90;;;;;;4997295;28;20518;-72
2022/04/18 02:13:28;;;;;;;20.80;14.13;;;5.30;99.90;;;;;;4997343;28;20125;-71
2022/04/18 02:15:56;;;;;;;20.67;14.30;;;5.30;99.90;;;;;;4997207;28;20097;-72
2022/04/18 02:18:21;;;;;;;23.13;15.23;;;5.30;99.90;;;;;;4996957;28;20451;-73
2022/04/18 02:20:47;;;;;;;23.48;14.70;;;5.20;99.90;;;;;;4996534;28;20042;-75
2022/04/18 02:23:13;;;;;;;26.17;14.02;;;5.20;99.90;;;;;;4997374;28;20042;-72
2022/04/18 02:25:38;;;;;;;22.15;14.15;;;5.20;99.90;;;;;;4997014;28;20050;-71
2022/04/18 02:28:04;;;;;;;21.73;14.80;;;5.20;99.90;;;;;;4996381;28;20073;-72
2022/04/18 02:30:30;;;;;;;21.95;15.70;;;5.10;99.90;;;;;;4997547;28;20057;-73
2022/04/18 02:32:56;;;;;;;21.52;14.60;;;5.10;99.90;;;;;;4979707;28;20046;-72
2022/04/18 02:35:24;;;;;;;23.55;14.75;;;5.00;99.90;;;;;;4997118;28;20075;-71
2022/04/18 02:37:51;;;;;;;27.60;14.70;;;5.00;99.90;;;;;;4979684;28;20069;-72
2022/04/18 02:40:17;;;;;;;24.63;14.80;;;5.00;99.90;;;;;;4997090;28;20061;-73
2022/04/18 02:42:43;;;;;;;25.58;14.93;;;4.90;99.90;;;;;;4996608;28;20363;-72
2022/04/18 02:45:14;;;;;;;23.10;14.43;;;5.80;99.90;;;;;;4979667;28;20050;-72
2022/04/18 02:47:40;;;;;;;20.13;13.88;;;5.00;99.90;;;;;;4996336;28;20371;-71
2022/04/18 02:50:06;;;;;;;23.15;14.90;;;4.80;99.90;;;;;;4996721;28;20050;-71
2022/04/18 02:52:32;;;;;;;23.67;14.32;;;4.80;99.90;;;;;;4996854;28;20449;-73
2022/04/18 02:54:58;;;;;;;24.60;14.32;;;4.70;99.90;;;;;;4996384;28;20152;-73
2022/04/18 02:57:23;;;;;;;24.20;15.13;;;4.70;99.90;;;;;;4996189;28;20066;-72
2022/04/18 02:59:49;;;;;;;21.05;14.82;;;4.70;99.90;;;;;;4996296;28;20354;-74
2022/04/18 03:02:14;;;;;;;23.13;14.65;;;4.70;99.90;;;;;;4996226;28;20535;-72
2022/04/18 03:04:40;;;;;;;21.65;14.40;;;4.70;99.90;;;;;;4996184;28;20042;-74
2022/04/18 03:07:05;;;;;;;22.25;14.25;;;4.70;99.90;;;;;;4979548;28;20085;-75
2022/04/18 03:09:31;;;;;;;22.20;15.35;;;4.60;99.90;;;;;;4996503;28;20046;-72
2022/04/18 03:11:57;;;;;;;22.55;14.68;;;4.60;99.90;;;;;;4996214;28;20105;-72
2022/04/18 03:14:23;;;;;;;24.05;14.23;;;4.60;99.90;;;;;;4996960;28;20053;-71
2022/04/18 03:16:49;;;;;;;22.92;15.02;;;4.60;99.90;;;;;;4996084;28;20045;-72
2022/04/18 03:19:15;;;;;;;25.92;15.02;;;4.60;99.90;;;;;;4996511;28;20526;-72
2022/04/18 03:21:40;;;;;;;23.17;13.50;;;4.60;99.90;;;;;;4979052;28;20047;-74
2022/04/18 03:24:06;;;;;;;21.17;14.57;;;4.60;99.90;;;;;;4979101;28;20082;-72
2022/04/18 03:26:32;;;;;;;21.50;13.77;;;4.60;99.90;;;;;;4995757;28;20627;-73
2022/04/18 03:28:58;;;;;;;21.13;14.55;;;4.60;99.90;;;;;;4978869;28;20192;-72
2022/04/18 03:31:23;;;;;;;22.75;14.20;;;4.60;99.90;;;;;;4978833;28;20078;-73
2022/04/18 03:33:49;;;;;;;25.45;15.32;;;4.70;99.90;;;;;;4995696;28;20057;-75
2022/04/18 03:41:42;;;;;;;23.70;13.82;;;4.70;99.90;;;;;;4995888;28;20211;-71
2022/04/18 03:44:09;;;;;;;19.83;12.73;;;4.70;99.90;;;;;;4995688;28;20121;-72
2022/04/18 03:46:35;;;;;;;23.98;13.30;;;4.70;99.90;;;;;;4995694;28;20053;-73
2022/04/18 03:49:00;;;;;;;20.67;13.95;;;4.70;99.90;;;;;;4978707;28;20043;-71
2022/04/18 03:51:26;;;;;;;19.60;13.63;;;4.70;99.90;;;;;;4995570;28;20042;-73
2022/04/18 03:53:51;;;;;;;23.08;13.50;;;4.70;99.90;;;;;;4995957;28;20056;-72
2022/04/18 03:56:17;;;;;;;22.00;14.25;;;4.70;99.90;;;;;;4995637;28;20046;-72
2022/04/18 03:58:42;;;;;;;22.15;14.18;;;4.70;99.90;;;;;;4995466;28;20418;-72
2022/04/18 04:01:08;;;;;;;22.73;12.65;;;4.70;99.90;;;;;;4995193;28;20125;-74
2022/04/18 04:03:34;;;;;;;22.10;13.60;;;4.70;99.90;;;;;;4995412;28;20046;-73
2022/04/18 04:06:00;;;;;;;18.73;12.93;;;4.70;99.90;;;;;;4977211;28;20069;-72
2022/04/18 04:08:28;;;;;;;21.50;14.50;;;4.60;99.90;;;;;;4979268;28;20054;-73
2022/04/18 04:10:53;;;;;;;22.05;14.10;;;4.60;99.90;;;;;;4995327;28;20439;-73
2022/04/18 04:13:19;;;;;;;22.23;13.77;;;4.60;99.90;;;;;;4995448;28;20053;-73
2022/04/18 04:15:45;;;;;;;23.13;13.95;;;4.60;99.90;;;;;;4995825;28;20078;-73
2022/04/18 04:18:11;;;;;;;21.40;14.07;;;4.60;99.90;;;;;;4961809;28;20084;-72
2022/04/18 04:20:37;;;;;;;21.33;13.00;;;4.60;99.90;;;;;;4995222;28;20039;-72
2022/04/18 04:23:03;;;;;;;21.08;14.05;;;4.60;99.90;;;;;;4995138;28;20077;-72
2022/04/18 04:25:28;;;;;;;18.80;13.45;;;4.60;99.90;;;;;;4995292;28;20051;-73
2022/04/18 04:27:54;;;;;;;22.42;14.60;;;4.60;99.90;;;;;;4995780;28;20050;-72
2022/04/18 04:30:19;;;;;;;21.02;14.38;;;4.70;99.90;;;;;;4995266;28;20068;-73
2022/04/18 04:32:45;;;;;;;22.45;12.80;;;4.70;99.90;;;;;;4979051;28;20558;-72
2022/04/18 04:35:11;;;;;;;22.10;13.60;;;4.70;99.90;;;;;;4994736;28;20050;-73
2022/04/18 04:37:36;;;;;;;21.02;13.20;;;4.70;99.90;;;;;;4995310;28;20129;-73
2022/04/18 04:40:03;;;;;;;20.60;12.32;;;4.70;99.90;;;;;;4995415;28;20105;-74
2022/04/18 04:42:28;;;;;;;21.23;13.30;;;4.70;99.90;;;;;;4978429;28;20121;-73
2022/04/18 04:44:54;;;;;;;23.70;13.48;;;4.70;99.90;;;;;;4994696;28;20089;-73
2022/04/18 04:47:20;;;;;;;20.85;12.55;;;4.80;99.90;;;;;;4995320;28;20409;-74
2022/04/18 04:49:45;;;;;;;20.38;13.13;;;4.80;99.90;;;;;;4995696;28;20054;-74
2022/04/18 04:52:11;;;;;;;22.48;13.73;;;4.80;99.90;;;;;;4981447;28;20120;-72
2022/04/18 04:54:36;;;;;;;18.98;12.60;;;4.90;99.90;;;;;;4999423;28;20121;-73
2022/04/18 04:57:02;;;;;;;18.70;12.23;;;4.90;99.90;;;;;;4998540;28;20050;-72
2022/04/18 04:59:27;;;;;;;21.20;12.52;;;4.90;99.90;;;;;;4998774;28;20046;-72
2022/04/18 05:01:53;;;;;;;19.95;12.27;;;5.00;99.90;;;;;;4986840;28;20050;-71
2022/04/18 05:04:18;;;;;;;20.08;12.07;;;5.00;99.90;;;;;;4979137;28;20054;-72
2022/04/18 05:06:44;;;;;;;20.58;12.65;;;5.00;99.90;;;;;;4945988;28;20112;-73
2022/04/18 05:09:10;;;;;;;18.00;11.35;;;5.00;99.90;;;;;;4979270;28;20459;-72
2022/04/18 05:11:36;;;;;;;16.75;11.82;;;5.10;99.90;;;;;;4978682;28;20463;-73
2022/04/18 05:14:01;;;;;;;17.48;11.07;;;5.10;99.90;;;;;;4964361;28;20058;-68
2022/04/18 05:16:27;;;;;;;17.95;12.18;;;5.10;99.90;;;;;;4976513;28;20046;-70
2022/04/18 05:18:52;;;;;;;17.77;11.73;;;5.20;99.90;;;;;;4979002;28;20042;-73
2022/04/18 05:21:18;;;;;;;19.88;11.57;;;5.30;99.90;;;;;;4977597;28;20485;-73
2022/04/18 05:23:44;;;;;;;21.08;11.57;;;5.40;99.90;;;;;;4978726;28;20055;-72
2022/04/18 05:26:09;;;;;;;17.25;11.90;;;5.50;99.90;;;;;;4978786;28;20444;-73
2022/04/18 05:28:35;;;;;;;17.50;11.65;;;5.50;99.90;;;;;;4978857;28;20050;-74
2022/04/18 05:31:01;;;;;;;22.48;12.43;;;5.70;99.90;;;;;;4982397;28;20042;-73
2022/04/18 05:33:27;;;;;;;16.80;11.52;;;5.80;99.90;;;;;;4985076;28;20100;-74
2022/04/18 05:35:52;;;;;;;18.50;12.13;;;5.90;99.90;;;;;;4997920;28;20046;-73
2022/04/18 05:38:18;;;;;;;19.13;11.70;;;5.90;99.90;;;;;;4997261;28;20121;-72
2022/04/18 05:40:43;;;;;;;16.17;11.88;;;6.00;99.90;;;;;;4997749;28;20411;-73
2022/04/18 05:43:09;;;;;;;17.67;11.18;;;6.10;99.90;;;;;;4997982;28;20038;-73
2022/04/18 05:45:37;;;;;;;16.45;11.75;;;6.30;99.90;;;;;;4997683;28;20042;-73
2022/04/18 05:48:02;;;;;;;19.10;11.52;;;6.60;99.90;;;;;;4998032;28;20039;-72
2022/04/18 05:50:28;;;;;;;20.20;11.40;;;6.90;99.90;;;;;;4996904;28;20057;-73
2022/04/18 05:52:54;;;;;;;17.58;11.88;;;7.00;99.90;;;;;;4997589;28;20359;-72
2022/04/18 05:55:20;;;;;;;16.63;11.70;;;7.30;99.90;;;;;;4977000;28;20109;-72
2022/04/18 05:57:46;;;;;;;18.52;12.13;;;8.20;99.90;;;;;;4997685;28;20050;-72
2022/04/18 06:00:12;;;;;;;18.02;11.00;;;9.70;99.90;;;;;;4997297;28;20046;-73
2022/04/18 06:02:40;;;;;;;20.63;11.70;;;11.00;99.90;;;;;;4997997;28;20108;-71
2022/04/18 06:05:06;;;;;;;17.58;11.25;;;12.20;99.90;;;;;;4993348;28;20112;-72
2022/04/18 06:07:32;;;;;;;15.85;11.48;;;12.70;99.90;;;;;;4997325;28;20046;-74
2022/04/18 06:09:58;;;;;;;15.75;11.23;;;13.60;98.30;;;;;;4997286;28;20046;-72
2022/04/18 06:12:24;;;;;;;17.48;11.38;;;14.20;96.80;;;;;;4997687;28;20125;-73
2022/04/18 06:14:49;;;;;;;16.58;11.10;;;15.00;94.90;;;;;;4997335;28;20089;-70
2022/04/18 06:17:15;;;;;;;16.85;10.55;;;15.20;92.60;;;;;;4997370;28;20517;-70
2022/04/18 06:19:41;;;;;;;17.55;11.55;;;15.50;90.40;;;;;;4980218;28;20129;-73
2022/04/18 06:22:06;;;;;;;19.00;11.23;;;15.70;86.40;;;;;;4996876;28;20042;-70
2022/04/18 06:24:32;;;;;;;19.45;12.23;;;16.30;87.80;;;;;;4993281;28;20505;-70
2022/04/18 06:26:57;;;;;;;15.57;10.70;;;16.60;87.00;;;;;;4996945;28;20484;-71
2022/04/18 06:29:23;;;;;;;16.35;10.18;;;16.80;82.50;;;;;;4997008;28;20375;-71
2022/04/18 06:31:49;;;;;;;15.48;10.75;;;17.10;79.10;;;;;;4996994;28;20038;-71
2022/04/18 06:34:16;;;;;;;17.02;10.00;;;17.30;79.80;;;;;;4996767;28;20117;-72
2022/04/18 06:36:42;;;;;;;14.15;9.77;;;17.60;79.00;;;;;;4979752;28;20068;-75
2022/04/18 06:39:08;;;;;;;14.02;10.18;;;17.70;78.90;;;;;;4996782;28;20038;-73
2022/04/18 06:41:33;;;;;;;12.45;9.55;;;18.20;76.60;;;;;;4979529;28;20113;-73
2022/04/18 06:43:59;;;;;;;14.50;10.10;;;18.60;78.30;;;;;;4979744;28;20470;-72
2022/04/18 06:46:24;;;;;;;12.57;9.05;;;18.70;73.10;;;;;;4996627;28;20096;-74
2022/04/18 06:48:50;;;;;;;14.48;10.18;;;18.70;72.00;;;;;;4996794;28;20050;-73
2022/04/18 06:51:15;;;;;;;14.90;10.05;;;18.10;73.10;;;;;;4996106;28;20050;-74
2022/04/18 06:53:41;;;;;;;16.13;10.70;;;17.30;71.60;;;;;;4976086;28;20113;-72
2022/04/18 06:58:50;;;;;;;11.32;9.23;;;15.20;74.70;;;;;;4976983;28;20471;-72
2022/04/18 07:01:16;;;;;;;14.38;9.77;;;14.30;76.60;;;;;;4976688;28;20050;-75
2022/04/18 07:03:41;;;;;;;12.95;8.90;;;13.80;78.90;;;;;;4976749;28;20061;-73
2022/04/18 07:06:07;;;;;;;14.18;9.70;;;13.40;81.20;;;;;;4977125;28;20053;-73
2022/04/18 07:08:32;;;;;;;13.38;8.88;;;13.30;81.90;;;;;;4977131;28;20081;-72
2022/04/18 07:10:58;;;;;;;13.30;8.43;;;13.20;85.90;;;;;;4976792;28;20083;-72
2022/04/18 07:13:24;;;;;;;12.90;8.90;;;13.00;86.90;;;;;;4979045;28;20482;-74
2022/04/18 07:15:49;;;;;;;13.55;8.82;;;12.90;87.00;;;;;;4976568;28;20062;-77
2022/04/18 07:18:15;;;;;;;13.88;9.30;;;12.80;87.60;;;;;;4976568;28;20047;-75
2022/04/18 07:20:41;;;;;;;13.13;8.63;;;12.80;88.60;;;;;;4976935;28;20046;-69
2022/04/18 07:23:07;;;;;;;14.20;9.15;;;12.80;85.90;;;;;;4977842;28;20042;-72
2022/04/18 07:25:32;;;;;;;13.63;8.30;;;12.70;85.80;;;;;;4995968;28;20046;-73
2022/04/18 07:27:58;;;;;;;12.82;8.50;;;12.60;86.10;;;;;;4995860;28;20061;-73
2022/04/18 07:30:29;;;;;;;13.30;9.32;;;12.60;86.00;;;;;;4977790;28;20046;-72
2022/04/18 07:32:55;;;;;;;10.18;7.90;;;12.50;85.70;;;;;;4995780;28;20121;-71
2022/04/18 07:35:21;;;;;;;15.77;9.13;;;12.50;88.40;;;;;;4995588;28;20077;-69
2022/04/18 07:40:30;;;;;;;12.52;8.55;;;12.70;89.60;;;;;;4995819;28;20068;-71
2022/04/18 07:42:56;;;;;;;13.00;8.80;;;12.80;90.10;;;;;;4978339;28;20046;-72
2022/04/18 07:45:22;;;;;;;12.60;8.70;;;12.90;90.30;;;;;;4995341;28;20655;-73
2022/04/18 07:47:50;;;;;;;12.95;8.15;;;12.90;90.80;;;;;;4995403;28;20039;-73
2022/04/18 07:50:15;;;;;;;18.35;8.25;;;13.00;90.20;;;;;;4991813;28;20313;-73
2022/04/18 07:52:41;;;;;;;11.68;7.80;;;13.10;90.40;;;;;;4992552;28;20042;-73
2022/04/18 07:55:07;;;;;;;12.60;8.15;;;13.20;90.20;;;;;;4995407;28;20348;-73
2022/04/18 07:57:32;;;;;;;11.80;7.57;;;13.20;90.50;;;;;;4977467;28;20132;-74
2022/04/18 07:59:58;;;;;;;10.80;8.00;;;13.30;89.30;;;;;;4995052;28;20042;-74
2022/04/18 08:02:24;;;;;;;12.40;8.70;;;13.20;87.00;;;;;;4995022;28;20042;-73
2022/04/18 08:04:50;;;;;;;13.55;8.07;;;13.30;88.50;;;;;;4993751;28;20516;-73
2022/04/18 08:07:15;;;;;;;17.90;8.52;;;13.30;87.90;;;;;;4977777;28;20086;-75
2022/04/18 08:09:41;;;;;;;12.25;7.68;;;13.50;90.30;;;;;;4977761;28;20348;-73
2022/04/18 08:12:07;;;;;;;12.18;7.72;;;14.50;88.80;;;;;;4991260;28;20433;-74
2022/04/18 08:14:32;;;;;;;12.13;7.65;;;15.60;84.20;;;;;;4975518;28;20125;-74
2022/04/18 08:16:58;;;;;;;13.27;8.00;;;16.80;83.30;;;;;;4994992;28;20368;-74
2022/04/18 08:19:23;;;;;;;11.00;7.53;;;17.60;80.90;;;;;;4995387;28;20042;-73
2022/04/18 08:21:49;;;;;;;10.95;7.53;;;18.40;78.00;;;;;;4994979;28;20417;-75
2022/04/18 08:24:15;;;;;;;11.10;7.95;;;18.90;74.40;;;;;;4996290;28;20406;-74
2022/04/18 08:26:41;;;;;;;14.38;8.30;;;19.30;72.40;;;;;;4998941;28;20073;-75
2022/04/18 08:29:06;;;;;;;11.80;7.70;;;19.60;72.00;;;;;;4998803;28;20446;-74
2022/04/18 08:31:32;;;;;;;12.90;7.15;;;19.60;69.90;;;;;;4998996;28;20140;-73
2022/04/18 08:33:57;;;;;;;10.25;6.60;;;19.80;68.90;;;;;;4998716;28;20046;-74
2022/04/18 08:36:23;;;;;;;11.65;7.18;;;20.40;69.10;;;;;;4998970;28;20035;-73
2022/04/18 08:38:49;;;;;;;9.40;5.78;;;20.70;68.20;;;;;;4982002;28;20081;-74
2022/04/18 08:41:21;;;;;;;9.30;6.30;;;20.90;67.50;;;;;;4981592;28;20482;-73
2022/04/18 08:43:47;;;;;;;10.55;6.00;;;20.80;62.90;;;;;;4998451;28;20544;-73
2022/04/18 08:46:13;;;;;;;8.85;6.15;;;20.80;64.80;;;;;;4996728;28;20137;-75
2022/04/18 08:54:13;;;;;;;8.32;5.18;;;20.70;63.30;;;;;;5000457;28;20050;-75
2022/04/18 08:56:39;;;;;;;8.55;5.38;;;20.40;61.90;;;;;;4998408;28;20050;-74
2022/04/18 08:59:04;;;;;;;10.52;5.95;;;19.90;63.80;;;;;;4998491;28;20050;-73
2022/04/18 09:01:30;;;;;;;9.00;5.53;;;19.70;64.70;;;;;;4998219;28;20050;-73
2022/04/18 09:03:55;;;;;;;9.00;5.35;;;19.40;64.50;;;;;;4980920;28;20093;-75
2022/04/18 09:06:24;;;;;;;8.55;5.10;;;19.00;63.40;;;;;;4998308;28;20047;-75
2022/04/18 09:08:55;;;;;;;7.90;4.65;;;18.70;64.00;;;;;;4980670;28;20056;-74
2022/04/18 09:11:37;;;;;;;7.53;4.85;;;18.60;62.00;;;;;;4980911;28;20061;-74
2022/04/18 09:14:10;;;;;;;8.00;5.65;;;18.50;64.80;;;;;;4998415;28;20466;-75
2022/04/18 09:16:37;;;;;;;;;;;18.20;61.90;;;;;;4993456;28;20078;-73
2022/04/18 09:19:16;;;;;;;8.25;5.55;;;18.10;64.60;;;;;;4997804;28;19921;-76
2022/04/18 09:21:41;;;;;;;10.30;5.65;;;18.00;63.80;;;;;;4997785;28;20497;-74
2022/04/18 09:24:07;;;;;;;9.57;5.53;;;18.00;64.90;;;;;;4997895;28;20050;-75
2022/04/18 09:26:32;;;;;;;6.93;4.75;;;18.30;62.60;;;;;;4997738;28;20050;-75
2022/04/18 09:29:05;;;;;;;24.10;6.05;;;18.50;61.80;;;;;;4998146;28;20066;-75
2022/04/18 09:31:39;;;;;;;7.80;5.20;;;18.90;63.00;;;;;;4994712;28;20050;-76
2022/04/18 09:34:05;;;;;;;9.00;5.13;;;19.40;62.20;;;;;;4997864;28;20478;-74
2022/04/18 09:36:31;;;;;;;7.40;5.20;;;19.80;63.20;;;;;;4997255;28;20043;-74
2022/04/18 09:38:57;;;;;;;8.70;5.00;;;20.40;61.40;;;;;;4997405;28;20053;-75
2022/04/18 09:41:28;;;;;;;8.98;5.63;;;20.60;63.00;;;;;;4980510;28;20046;-76
2022/04/18 09:43:54;;;;;;;8.02;5.10;;;20.40;63.00;;;;;;4979967;28;20129;-74
2022/04/18 09:46:21;;;;;;;7.10;4.57;;;19.90;63.70;;;;;;4997460;28;20180;-74
2022/04/18 09:48:48;;;;;;;8.90;4.40;;;19.60;64.00;;;;;;4980613;28;20161;-75
2022/04/18 09:51:24;;;;;;;8.50;5.30;;;19.20;64.30;;;;;;4997423;28;20455;-74
2022/04/18 09:53:52;;;;;;;8.70;5.10;;;19.00;65.10;;;;;;4997790;28;20057;-74
2022/04/18 09:56:21;;;;;;;7.68;5.18;;;18.80;61.70;;;;;;4997393;28;20046;-74
2022/04/18 09:58:46;;;;;;;6.75;4.78;;;18.60;62.70;;;;;;4963924;28;20560;-74
2022/04/18 10:01:13;;;;;;;8.38;4.50;;;18.50;63.80;;;;;;4991325;28;20034;-74
2022/04/18 10:03:40;;;;;;;10.23;4.78;;;18.60;64.50;;;;;;4980694;28;20081;-72
2022/04/18 10:06:07;;;;;;;6.45;4.20;;;18.60;62.50;;;;;;4986650;28;20082;-73
2022/04/18 10:08:34;;;;;;;7.28;4.63;;;18.60;63.50;;;;;;4997335;28;20375;-75
2022/04/18 10:11:01;;;;;;;10.63;4.72;;;18.50;63.20;;;;;;4996869;28;20505;-74
2022/04/18 10:13:28;;;;;;;8.02;4.22;;;18.50;63.20;;;;;;4997003;28;20050;-74
2022/04/18 10:15:55;;;;;;;8.45;4.57;;;18.50;63.00;;;;;;4997235;28;20046;-74
2022/04/18 10:18:21;;;;;;;6.50;4.43;;;18.50;62.90;;;;;;4979952;28;20058;-74
2022/04/18 10:21:07;;;;;;;7.40;4.50;;;18.60;61.80;;;;;;4996630;28;20046;-73
2022/04/18 10:24:03;;;;;;;7.55;4.53;;;18.80;62.60;;;;;;4996332;28;20038;-73
2022/04/18 10:27:03;;;;;;;9.10;5.07;;;18.90;63.60;;;;;;4996560;28;20116;-73
2022/04/18 10:29:53;;;;;;;7.80;4.88;;;18.80;61.20;;;;;;4996879;28;20381;-73
2022/04/18 10:32:22;;;;;;;7.95;3.70;;;18.80;64.20;;;;;;4996401;28;20046;-73
2022/04/18 10:34:52;;;;;;;5.63;3.78;;;18.80;60.80;;;;;;4979801;28;20151;-73
2022/04/18 10:37:23;;;;;;;7.88;4.03;;;18.80;60.60;;;;;;4996763;28;20378;-74
2022/04/18 10:40:11;;;;;;;8.07;4.53;;;19.00;60.70;;;;;;4979490;28;20046;-75
2022/04/18 10:42:38;;;;;;;7.82;4.80;;;19.10;60.10;;;;;;4995797;28;20050;-71
2022/04/18 10:45:24;;;;;;;8.57;5.15;;;19.00;61.10;;;;;;4996370;28;20137;-72
2022/04/18 10:47:59;;;;;;;7.05;5.00;;;18.90;60.40;;;;;;4995254;28;20046;-69
2022/04/18 10:50:26;;;;;;;6.43;4.80;;;18.90;60.40;;;;;;4996218;28;20048;-73
2022/04/18 10:53:22;;;;;;;8.07;5.13;;;18.70;60.80;;;;;;4996369;28;20043;-74
2022/04/18 10:55:53;;;;;;;7.38;4.32;;;18.80;62.30;;;;;;4996544;28;20132;-73
2022/04/18 10:58:27;;;;;;;6.88;4.72;;;18.90;59.50;;;;;;4996220;28;20073;-69
2022/04/18 11:01:01;;;;;;;7.28;4.25;;;18.90;59.60;;;;;;4987150;28;20398;-70
2022/04/18 11:03:54;;;;;;;7.20;4.50;;;19.20;61.60;;;;;;4996099;28;20054;-72
2022/04/18 11:06:23;;;;;;;8.85;5.20;;;19.30;62.00;;;;;;4996385;28;20061;-72
2022/04/18 11:09:13;;;;;;;9.70;5.07;;;19.50;62.60;;;;;;4979299;28;20058;-72
2022/04/18 11:12:06;;;;;;;6.57;4.40;;;19.60;60.90;;;;;;4995835;28;20119;-72
2022/04/18 11:14:37;;;;;;;8.05;4.28;;;19.80;60.60;;;;;;4995962;28;20054;-72
2022/04/18 11:17:04;;;;;;;9.85;4.07;;;19.70;56.20;;;;;;4962827;28;20046;-73
2022/04/18 11:19:31;;;;;;;6.15;4.47;;;19.70;58.00;;;;;;4992518;28;20046;-71
2022/04/18 11:21:57;;;;;;;7.32;4.22;;;19.70;57.10;;;;;;4995406;28;20181;-72
2022/04/18 11:24:43;;;;;;;7.22;4.45;;;19.80;56.30;;;;;;4995484;28;20061;-69
2022/04/18 11:27:28;;;;;;;7.43;3.92;;;19.60;53.40;;;;;;4995964;28;20120;-73
2022/04/18 11:29:58;;;;;;;6.22;3.85;;;19.60;57.40;;;;;;4995118;28;20060;-74
2022/04/18 11:32:33;;;;;;;6.10;3.40;;;19.60;55.60;;;;;;4981939;28;20077;-72
2022/04/18 11:35:00;;;;;;;6.93;3.17;;;19.60;55.50;;;;;;4991891;28;20483;-71
2022/04/18 11:37:26;;;;;;;7.07;3.53;;;19.90;56.30;;;;;;4978563;28;20046;-71
2022/04/18 11:39:55;;;;;;;5.50;3.40;;;19.80;53.20;;;;;;4966345;28;20133;-72
2022/04/18 11:42:22;;;;;;;4.97;3.75;;;19.90;55.10;;;;;;4994435;28;20053;-72
2022/04/18 11:44:51;;;;;;;5.45;3.35;;;20.10;56.20;;;;;;4975373;28;20137;-70
2022/04/18 11:47:21;;;;;;;5.75;3.38;;;20.30;54.60;;;;;;4977746;28;20054;-73
2022/04/18 11:49:49;;;;;;;5.60;3.50;;;20.10;52.00;;;;;;4993148;28;20046;-72
2022/04/18 11:52:26;;;;;;;4.80;2.88;;;20.10;52.50;;;;;;4977899;28;20427;-72
2022/04/18 11:55:00;;;;;;;6.75;3.00;;;20.30;55.10;;;;;;4994472;28;20120;-74
2022/04/18 11:57:28;;;;;;;4.15;2.75;;;20.50;54.50;;;;;;4994774;28;20157;-73
2022/04/18 11:59:55;;;;;;;6.07;3.50;;;20.50;53.10;;;;;;4994880;28;20039;-71
2022/04/18 12:07:52;;;;;;;6.78;3.95;;;21.40;55.30;;;;;;4994568;28;20133;-69
2022/04/18 12:10:29;;;;;;;5.90;3.58;;;21.70;55.50;;;;;;4995544;28;20347;-70
2022/04/18 12:12:55;;;;;;;6.32;3.58;;;21.80;50.30;;;;;;4992800;28;20042;-70
2022/04/18 12:15:22;;;;;;;6.05;3.60;;;21.30;48.20;;;;;;4988210;28;20046;-68
2022/04/18 12:17:49;;;;;;;4.32;3.40;;;21.50;52.40;;;;;;4978290;28;20121;-72
2022/04/18 12:20:18;;;;;;;9.13;3.15;;;21.40;56.20;;;;;;4995041;28;20042;-73
2022/04/18 12:22:51;;;;;;;5.78;2.70;;;21.70;56.20;;;;;;4994943;28;20051;-70
2022/04/18 12:25:21;;;;;;;4.65;3.33;;;22.10;58.80;;;;;;4994971;28;20407;-70
2022/04/18 12:27:47;;;;;;;7.63;3.05;;;22.30;50.10;;;;;;4977970;28;20050;-70
2022/04/18 12:30:13;;;;;;;6.05;3.47;;;22.30;54.00;;;;;;4995230;28;20042;-71
2022/04/18 12:32:38;;;;;;;5.05;3.10;;;22.30;54.10;;;;;;4994185;28;20140;-69
2022/04/18 12:35:05;;;;;;;6.55;3.90;;;22.00;51.10;;;;;;4965584;28;20497;-69
2022/04/18 12:37:31;;;;;;;6.40;3.70;;;21.90;50.90;;;;;;4993017;28;20376;-71
2022/04/18 12:40:14;;;;;;;5.30;3.20;;;21.60;49.90;;;;;;4994795;28;20061;-70
2022/04/18 12:42:40;;;;;;;5.07;3.60;;;21.50;50.40;;;;;;4994849;28;20085;-70
2022/04/18 12:45:06;;;;;;;6.10;3.58;;;21.30;51.50;;;;;;4994594;28;20466;-69
2022/04/18 12:47:33;;;;;;;8.20;3.70;;;21.30;51.40;;;;;;4977675;28;20062;-69
2022/04/18 12:50:02;;;;;;;5.50;3.58;;;21.30;51.30;;;;;;4994864;28;20061;-68
2022/04/18 12:52:28;;;;;;;7.45;3.40;;;21.30;50.90;;;;;;4994809;28;20053;-71
2022/04/18 12:55:05;;;;;;;11.20;3.80;;;21.40;51.30;;;;;;4994810;28;20370;-71
2022/04/18 12:57:32;;;;;;;11.93;3.50;;;21.30;49.70;;;;;;4994441;28;20057;-70
2022/04/18 13:00:14;;;;;;;6.38;3.70;;;21.40;51.40;;;;;;4994676;28;20113;-70
2022/04/18 13:03:15;;;;;;;5.20;3.45;;;21.30;51.10;;;;;;4976964;28;20073;-70
2022/04/18 13:05:50;;;;;;;6.18;3.42;;;21.30;51.30;;;;;;4915556;29;20117;-70
2022/04/18 13:08:17;;;;;;;5.55;3.25;;;21.40;51.30;;;;;;4974580;28;20094;-71
2022/04/18 13:10:44;;;;;;;4.00;2.80;;;21.30;50.00;;;;;;4995513;28;20413;-71